Home PIREPS Pireps

Flight BEL5626

  • Submitted By: David Chenery
  • Departure Airport: Bruxelles National (EBBR)
  • Arrival Airport: Edinburgh Airport (EGPH)
  • Aircraft: A319-111 (OO-SSB)
  • Flight Time: 01.21
  • Date Submitted: 12/11/2017
  • Status: Accepted
Flight Details
Gross Revenue:
(120 load / € 103.00 per unit
€ 12,360.00
Fuel Cost:
(3744 fuel used @ 5.1 / unit)
€ 19,094.40

Additional Log Information:

View Log

Aircraft Used in flight is A319-112 BA
20:50 Brakes are On
20:51 Brakes are Released
20:52 You Took off @ 141 Knots and Flaps at Position 2
Departure Weather
EBBR 121820Z 33007KT 9999 SCT013 BKN025 05/04 Q1006 TEMPO 31015G25KT 3000 SHRAGS BKN014CBrn
20:52 Landing Gear Up @ 144 Knots and 200 Feet
22:03 Below 10000 feet you are not allowed to go over 250 knots
22:09 Landing Gear Down @ 169 Knots and 3700 Feet
22:12 You Landed @ 131 Knots and with -950 Vertical Speed
Arrival Weather
EGPH 121950Z 30008KT 270V360 9999 FEW036 05/M01 Q1023rn
22:12 Your Landing was very hard
22:12 Brakes are On
22:12 Brussels Bel-Track1.0.1.2

Route Map

Corporate About Us Our Team Vacancies Information Fleet Route Network Rules and Regulations Operations Flight Schedules Event Center Tours Partners IVAO Vatsim Acars dev FSCB

fb Users Online Belgium Serge Van Laethem, Belgium Glenn Sonck, Belgium Kurt Reyniers,
4 Pilot(s) and 97 Guest(s) Online
CMS by phpVMS - Design by Crazycreatives.com - Copyright © 2018 - Brussels Airlines Virtual